This is the latest recevied weather packets stored in our database for station/object W6UA-13. If no packets are shown the sender has not sent any weather packets the latest 1 day(s).
| Time | Temp. | Humidity | Pressure | Rain* | Wind** | Luminosity | Snow |
|---|---|---|---|---|---|---|---|
| 1778104178 | 22.78° C | 54% | 1017.9 hPa | 0 mm | - | 812 W/m² | - |
| 1778103278 | 22.78° C | 56% | 1018 hPa | 0 mm | - | 830 W/m² | - |
| 1778102378 | 21.67° C | 60% | 1018 hPa | 0 mm | - | 846 W/m² | - |
| 1778101478 | 20.56° C | 62% | 1018.2 hPa | 0 mm | - | 863 W/m² | - |
| 1778100578 | 20.56° C | 62% | 1018.1 hPa | 0 mm | - | 875 W/m² | - |
| 1778099678 | 20° C | 64% | 1018.4 hPa | 0 mm | - | 881 W/m² | - |
| 1778098778 | 19.44° C | 65% | 1018.4 hPa | 0 mm | - | 888 W/m² | - |
| 1778096078 | 20.56° C | 60% | 1018.5 hPa | 0 mm | - | 879 W/m² | - |
| 1778093378 | 20.56° C | 61% | 1018.6 hPa | 0 mm | - | 838 W/m² | - |
| 1778063679 | 9.44° C | 87% | 1017.6 hPa | 0 mm | - | 0 W/m² | - |
| 1778062779 | 9.44° C | 87% | 1017.5 hPa | 0 mm | - | 0 W/m² | - |
| 1778061879 | 9.44° C | 87% | 1017.5 hPa | 0 mm | - | 0 W/m² | - |
| 1778060979 | 9.44° C | 87% | 1017.5 hPa | 0 mm | - | 0 W/m² | - |
| 1778060079 | 9.44° C | 87% | 1017.6 hPa | 0 mm | - | 0 W/m² | - |
| 1778059179 | 9.44° C | 87% | 1017.6 hPa | 0 mm | - | 0 W/m² | - |
| 1778058279 | 10° C | 87% | 1017.9 hPa | 0 mm | - | 0 W/m² | - |
| 1778057379 | 10° C | 86% | 1018 hPa | 0 mm | - | 0 W/m² | - |
| 1778056479 | 10° C | 86% | 1018 hPa | 0 mm | - | 0 W/m² | - |
| 1778055579 | 10.56° C | 86% | 1018.1 hPa | 0 mm | - | 0 W/m² | - |
| 1778054679 | 10.56° C | 86% | 1018.1 hPa | 0 mm | - | 0 W/m² | - |
| 1778053779 | 11.11° C | 85% | 1018 hPa | 0 mm | - | 0 W/m² | - |
| 1778052879 | 11.11° C | 85% | 1018 hPa | 0 mm | - | 0 W/m² | - |
| 1778051979 | 11.67° C | 85% | 1018 hPa | 0 mm | - | 0 W/m² | - |
| 1778051079 | 11.67° C | 84% | 1017.8 hPa | 0 mm | - | 0 W/m² | - |
| 1778050179 | 11.67° C | 84% | 1017.8 hPa | 0 mm | - | 0 W/m² | - |
* Rain latest hour (hover to see other rain measurements)
** Current wind speed in m/s (hover to see current wind gust speed)